createdAt,value
2019-05-25T00:00:59.296Z,4.05
2019-05-25T00:03:26.445Z,3.33
2019-05-25T00:05:53.734Z,1.85
2019-05-25T00:08:21.574Z,3.40
2019-05-25T00:10:49.001Z,1.72
2019-05-25T00:13:16.562Z,1.95
2019-05-25T00:15:44.216Z,2.12
2019-05-25T00:18:11.830Z,2.35
2019-05-25T00:20:39.142Z,1.98
2019-05-25T00:23:06.321Z,4.17
2019-05-25T00:25:33.583Z,2.33
2019-05-25T00:28:00.940Z,2.98
2019-05-25T00:30:28.175Z,2.40
2019-05-25T00:32:55.368Z,3.85
2019-05-25T00:35:22.631Z,2.72
2019-05-25T00:37:50.582Z,4.50
2019-05-25T00:40:18.438Z,2.95
2019-05-25T00:42:45.673Z,4.12
2019-05-25T00:45:13.478Z,2.08
2019-05-25T00:47:40.658Z,2.65
2019-05-25T00:50:09.280Z,2.12
2019-05-25T00:52:36.854Z,1.87
2019-05-25T00:55:04.713Z,3.42
2019-05-25T00:57:31.932Z,5.28
2019-05-25T00:59:59.687Z,3.05
2019-05-25T01:02:27.115Z,4.95
2019-05-25T01:04:54.251Z,2.17
2019-05-25T01:07:21.962Z,4.45
2019-05-25T01:09:49.522Z,3.08
2019-05-25T01:12:16.782Z,9.95
2019-05-25T01:14:44.191Z,4.30
2019-05-25T01:17:11.723Z,2.60
2019-05-25T01:19:38.960Z,4.40
2019-05-25T01:22:06.495Z,3.27
2019-05-25T01:24:43.906Z,2.40
2019-05-25T01:27:03.242Z,4.12
2019-05-25T01:29:31.391Z,2.70
2019-05-25T01:31:58.619Z,6.60
2019-05-25T01:34:26.483Z,4.90
2019-05-25T01:36:54.046Z,5.42
2019-05-25T01:39:21.645Z,3.47
2019-05-25T01:41:48.827Z,6.20
2019-05-25T01:44:16.766Z,3.20
2019-05-25T01:46:44.318Z,2.95
2019-05-25T01:49:11.900Z,3.22
2019-05-25T01:51:39.110Z,3.58
2019-05-25T01:54:06.627Z,2.85
2019-05-25T01:56:34.491Z,6.87
2019-05-25T01:59:02.356Z,3.62
2019-05-25T02:01:29.910Z,3.35
2019-05-25T02:03:57.771Z,5.60
2019-05-25T02:06:25.795Z,2.83
2019-05-25T02:08:52.989Z,3.85
2019-05-25T02:11:20.216Z,5.05
2019-05-25T02:13:47.643Z,6.55
2019-05-25T02:16:15.232Z,4.05
2019-05-25T02:18:45.633Z,4.45
2019-05-25T02:21:12.070Z,5.58
2019-05-25T02:23:39.254Z,3.27
2019-05-25T02:26:06.500Z,6.40
2019-05-25T02:28:34.563Z,3.87
2019-05-25T02:31:01.791Z,3.33
2019-05-25T02:33:28.979Z,10.55
2019-05-25T02:35:56.539Z,4.00
2019-05-25T02:38:23.747Z,4.20
2019-05-25T02:40:53.064Z,4.28
2019-05-25T02:43:20.562Z,4.28
2019-05-25T02:45:48.789Z,6.12
2019-05-25T02:48:16.378Z,6.78
2019-05-25T02:50:44.260Z,3.33
2019-05-25T02:53:11.803Z,3.90
2019-05-25T02:55:39.063Z,4.22
2019-05-25T02:58:06.235Z,7.20
2019-05-25T03:00:33.986Z,3.35
2019-05-25T03:03:02.012Z,3.55
2019-05-25T03:05:29.547Z,3.17
2019-05-25T03:07:57.130Z,5.08
2019-05-25T03:10:25.097Z,6.58
2019-05-25T03:12:52.939Z,3.83
2019-05-25T03:15:20.551Z,7.53
2019-05-25T03:17:48.126Z,4.10
2019-05-25T03:20:15.875Z,5.62
2019-05-25T03:22:43.739Z,4.53
2019-05-25T03:25:11.927Z,3.67
2019-05-25T03:27:39.140Z,4.15
2019-05-25T03:30:07.421Z,3.62
2019-05-25T03:32:35.344Z,3.42
2019-05-25T03:35:03.123Z,5.97
2019-05-25T03:37:30.754Z,5.55
2019-05-25T03:39:58.439Z,5.55
2019-05-25T03:42:26.327Z,3.42
2019-05-25T03:44:53.507Z,7.80
2019-05-25T03:47:20.875Z,4.62
2019-05-25T03:49:48.352Z,4.83
2019-05-25T03:52:15.942Z,5.95
2019-05-25T03:54:43.414Z,5.15
2019-05-25T03:57:10.967Z,9.38
2019-05-25T03:59:38.287Z,4.12
2019-05-25T04:02:05.796Z,7.17
2019-05-25T04:04:32.973Z,4.17
2019-05-25T04:07:00.520Z,5.53
2019-05-25T04:09:28.297Z,3.98
2019-05-25T04:11:55.859Z,5.62
2019-05-25T04:14:23.254Z,4.72
2019-05-25T04:16:50.448Z,5.80
2019-05-25T04:19:18.155Z,7.20
2019-05-25T04:21:45.599Z,6.65
2019-05-25T04:24:15.682Z,4.40
2019-05-25T04:26:43.162Z,5.25
2019-05-25T04:29:10.383Z,5.75
2019-05-25T04:31:37.867Z,4.87
2019-05-25T04:34:05.455Z,6.62
2019-05-25T04:36:32.653Z,6.78
2019-05-25T04:38:59.855Z,8.10
2019-05-25T04:41:27.511Z,5.85
2019-05-25T04:43:55.521Z,8.20
2019-05-25T04:46:23.090Z,5.17
2019-05-25T04:48:50.687Z,7.33
2019-05-25T04:51:18.000Z,5.17
2019-05-25T04:53:45.219Z,6.78
2019-05-25T04:56:12.852Z,5.83
2019-05-25T04:58:40.384Z,6.65
2019-05-25T05:01:07.607Z,7.90
2019-05-25T05:03:35.736Z,9.15
2019-05-25T05:06:03.503Z,6.00
2019-05-25T05:08:35.379Z,11.75
2019-05-25T05:11:00.492Z,7.35
2019-05-25T05:13:27.619Z,7.53
2019-05-25T05:15:55.203Z,9.00
2019-05-25T05:18:22.555Z,6.60
2019-05-25T05:20:49.884Z,7.78
2019-05-25T05:23:18.065Z,9.73
2019-05-25T05:25:45.642Z,8.15
2019-05-25T05:28:13.322Z,9.65
2019-05-25T05:30:40.988Z,8.15
2019-05-25T05:33:08.555Z,10.88
2019-05-25T05:35:39.068Z,8.73
2019-05-25T05:38:06.688Z,14.03
2019-05-25T05:40:35.797Z,12.78
2019-05-25T05:43:07.867Z,10.82
2019-05-25T05:45:37.326Z,10.48
2019-05-25T05:48:05.795Z,13.25
2019-05-25T05:50:36.411Z,8.30
2019-05-25T05:53:03.860Z,18.00
2019-05-25T05:55:31.543Z,10.65
2019-05-25T05:57:59.296Z,14.58
2019-05-25T06:00:26.487Z,12.43
2019-05-25T06:02:54.204Z,10.88
2019-05-25T06:05:21.550Z,9.90
2019-05-25T06:07:49.504Z,11.90
2019-05-25T06:10:16.718Z,14.68
2019-05-25T06:12:44.223Z,10.10
2019-05-25T06:15:11.959Z,11.95
2019-05-25T06:17:39.557Z,11.93
2019-05-25T06:20:08.040Z,14.78
2019-05-25T06:22:35.472Z,12.18
2019-05-25T06:25:03.226Z,14.30
2019-05-25T06:27:31.557Z,13.83
2019-05-25T06:29:58.747Z,15.88
2019-05-25T06:32:25.997Z,13.08
2019-05-25T06:34:53.631Z,13.53
2019-05-25T06:37:21.307Z,17.55
2019-05-25T06:39:49.280Z,18.07
2019-05-25T06:42:17.142Z,20.62
2019-05-25T06:44:44.712Z,16.75
2019-05-25T06:47:11.793Z,15.35
2019-05-25T06:49:39.488Z,15.95
2019-05-25T06:52:06.956Z,17.15
2019-05-25T06:54:34.569Z,17.48
2019-05-25T06:57:01.983Z,21.20
2019-05-25T06:59:29.674Z,14.10
2019-05-25T07:01:57.325Z,14.55
2019-05-25T07:04:26.342Z,15.60
2019-05-25T07:06:53.558Z,17.05
2019-05-25T07:09:21.593Z,17.07
2019-05-25T07:11:49.351Z,18.27
2019-05-25T07:14:17.223Z,19.65
2019-05-25T07:16:44.593Z,20.23
2019-05-25T07:19:12.453Z,18.62
2019-05-25T07:21:40.120Z,16.23
2019-05-25T07:24:07.453Z,16.27
2019-05-25T07:26:35.227Z,20.75
2019-05-25T07:29:03.544Z,19.70
2019-05-25T07:31:30.726Z,15.90
2019-05-25T07:33:58.659Z,19.40
2019-05-25T07:36:25.827Z,19.07
2019-05-25T07:38:53.692Z,16.07
2019-05-25T07:41:21.235Z,20.85
2019-05-25T07:43:48.454Z,17.25
2019-05-25T07:46:17.281Z,15.05
2019-05-25T07:48:45.279Z,17.92
2019-05-25T07:51:13.242Z,16.40
2019-05-25T07:53:41.328Z,17.12
2019-05-25T07:56:09.304Z,13.28
2019-05-25T07:58:37.164Z,16.12
2019-05-25T08:01:04.663Z,22.55
2019-05-25T08:03:32.195Z,14.45
2019-05-25T08:05:59.780Z,17.17
2019-05-25T08:08:27.367Z,15.93
2019-05-25T08:10:54.888Z,13.88
2019-05-25T08:13:22.191Z,17.02
2019-05-25T08:15:50.018Z,12.75
2019-05-25T08:18:19.234Z,14.95
2019-05-25T08:20:47.616Z,18.10
2019-05-25T08:23:15.683Z,14.45
2019-05-25T08:25:43.555Z,10.13
2019-05-25T08:28:11.739Z,14.43
2019-05-25T08:30:39.204Z,10.20
2019-05-25T08:33:07.170Z,14.30
2019-05-25T08:35:34.680Z,14.87
2019-05-25T08:38:02.043Z,16.07
2019-05-25T08:40:29.652Z,20.15
2019-05-25T08:42:57.424Z,26.65
2019-05-25T08:45:26.107Z,24.20
2019-05-25T08:47:56.942Z,21.82
2019-05-25T08:50:37.092Z,25.15
2019-05-25T08:52:53.827Z,24.52
2019-05-25T08:55:21.058Z,25.12
2019-05-25T08:57:48.978Z,28.90
2019-05-25T09:00:16.727Z,26.57
2019-05-25T09:02:45.454Z,24.70
2019-05-25T09:05:13.279Z,25.32
2019-05-25T09:07:41.092Z,22.85
2019-05-25T09:10:09.228Z,26.95
2019-05-25T09:12:37.417Z,29.48
2019-05-25T09:15:06.149Z,26.42
2019-05-25T09:17:34.659Z,23.95
2019-05-25T09:20:01.850Z,24.82
2019-05-25T09:22:30.028Z,25.77
2019-05-25T09:24:58.199Z,23.85
2019-05-25T09:27:26.371Z,21.87
2019-05-25T09:29:54.247Z,18.40
2019-05-25T09:32:21.783Z,17.92
2019-05-25T09:34:49.696Z,19.17
2019-05-25T09:37:18.040Z,17.82
2019-05-25T09:39:46.241Z,19.00
2019-05-25T09:42:13.614Z,17.42
2019-05-25T09:44:41.168Z,20.68
2019-05-25T09:47:08.401Z,16.67
2019-05-25T09:49:35.642Z,18.00
2019-05-25T09:52:03.350Z,15.83
2019-05-25T09:54:31.624Z,16.52
2019-05-25T09:57:21.317Z,16.75
2019-05-25T09:59:49.043Z,16.23
2019-05-25T10:02:16.638Z,15.75
2019-05-25T10:04:43.854Z,20.57
2019-05-25T10:07:11.796Z,18.23
2019-05-25T10:09:40.277Z,17.32
2019-05-25T10:12:09.157Z,17.50
2019-05-25T10:14:36.620Z,14.95
2019-05-25T10:17:04.195Z,12.53
2019-05-25T10:19:31.565Z,13.75
2019-05-25T10:21:59.679Z,20.30
2019-05-25T10:24:26.895Z,15.45
2019-05-25T10:26:54.740Z,17.20
2019-05-25T10:29:35.994Z,14.13
2019-05-25T10:31:51.407Z,16.67
2019-05-25T10:34:18.915Z,16.45
2019-05-25T10:36:46.953Z,16.32
2019-05-25T10:39:15.283Z,20.80
2019-05-25T10:41:42.515Z,16.15
2019-05-25T10:44:10.310Z,14.78
2019-05-25T10:46:37.525Z,18.75
2019-05-25T10:49:05.093Z,20.25
2019-05-25T10:51:32.623Z,18.65
2019-05-25T10:54:00.102Z,17.23
2019-05-25T10:56:27.967Z,15.88
2019-05-25T10:58:57.008Z,17.42
2019-05-25T11:01:24.939Z,19.65
2019-05-25T11:03:52.276Z,16.32
2019-05-25T11:06:19.507Z,16.90
2019-05-25T11:08:47.019Z,17.35
2019-05-25T11:11:14.482Z,17.73
2019-05-25T11:13:42.178Z,18.77
2019-05-25T11:16:09.619Z,15.18
2019-05-25T11:18:38.224Z,15.28
2019-05-25T11:21:05.641Z,15.75
2019-05-25T11:23:32.851Z,15.30
2019-05-25T11:26:01.810Z,16.23
2019-05-25T11:28:30.007Z,14.70
2019-05-25T11:30:57.180Z,15.18
2019-05-25T11:33:25.012Z,15.85
2019-05-25T11:35:52.555Z,15.10
2019-05-25T11:38:20.463Z,17.70
2019-05-25T11:40:48.368Z,17.48
2019-05-25T11:43:15.669Z,19.02
2019-05-25T11:45:45.344Z,13.58
2019-05-25T11:48:12.632Z,14.00
2019-05-25T11:50:40.217Z,13.98
2019-05-25T11:53:08.089Z,12.93
2019-05-25T11:55:35.343Z,12.55
2019-05-25T11:58:03.705Z,13.38
2019-05-25T12:00:31.357Z,12.53
2019-05-25T12:02:58.947Z,12.78
2019-05-25T12:05:26.497Z,16.62
2019-05-25T12:07:53.745Z,12.43
2019-05-25T12:10:24.572Z,14.53
2019-05-25T12:12:52.466Z,13.72
2019-05-25T12:15:19.689Z,10.93
2019-05-25T12:17:48.859Z,11.48
2019-05-25T12:20:16.571Z,18.05
2019-05-25T12:22:44.696Z,14.23
2019-05-25T12:25:13.799Z,13.25
2019-05-25T12:27:41.576Z,14.58
2019-05-25T12:30:10.608Z,12.78
2019-05-25T12:32:38.425Z,15.00
2019-05-25T12:35:06.047Z,12.85
2019-05-25T12:37:33.385Z,12.33
2019-05-25T12:40:00.895Z,12.82
2019-05-25T12:42:28.479Z,13.08
2019-05-25T12:44:55.684Z,15.05
2019-05-25T12:47:22.863Z,11.38
2019-05-25T12:49:51.219Z,15.08
2019-05-25T12:52:18.906Z,19.80
2019-05-25T12:54:46.131Z,16.02
2019-05-25T12:57:13.458Z,14.23
2019-05-25T12:59:40.791Z,14.58
2019-05-25T13:02:08.287Z,13.48
2019-05-25T13:04:35.863Z,12.43
2019-05-25T13:07:03.391Z,13.15
2019-05-25T13:09:30.731Z,13.85
2019-05-25T13:11:59.147Z,11.73
2019-05-25T13:14:26.706Z,12.65
2019-05-25T13:16:54.257Z,17.85
2019-05-25T13:19:22.795Z,11.70
2019-05-25T13:21:49.958Z,13.98
2019-05-25T13:24:17.783Z,12.47
2019-05-25T13:26:45.976Z,12.88
2019-05-25T13:29:13.213Z,13.93
2019-05-25T13:31:41.064Z,11.18
2019-05-25T13:34:08.263Z,10.93
2019-05-25T13:36:35.509Z,11.80
2019-05-25T13:39:04.854Z,9.80
2019-05-25T13:41:32.997Z,9.70
2019-05-25T13:44:00.572Z,10.10
2019-05-25T13:46:28.090Z,10.35
2019-05-25T13:48:56.306Z,10.08
2019-05-25T13:51:24.182Z,10.10
2019-05-25T13:53:51.934Z,10.50
2019-05-25T13:56:20.125Z,11.48
2019-05-25T13:58:47.786Z,12.18
2019-05-25T14:01:27.878Z,8.50
2019-05-25T14:03:44.875Z,18.77
2019-05-25T14:06:12.764Z,113.55
2019-05-25T14:08:40.610Z,12.85
2019-05-25T14:11:08.007Z,6.75
2019-05-25T14:13:35.226Z,6.37
2019-05-25T14:16:06.999Z,5.62
2019-05-25T14:18:33.735Z,7.12
2019-05-25T14:21:01.466Z,8.50
2019-05-25T14:23:28.930Z,5.60
2019-05-25T14:25:56.102Z,5.40
2019-05-25T14:28:23.647Z,5.80
2019-05-25T14:30:50.849Z,5.08
2019-05-25T14:33:18.350Z,5.42
2019-05-25T14:35:45.680Z,4.95
2019-05-25T14:38:13.555Z,5.65
2019-05-25T14:40:41.079Z,4.42
2019-05-25T14:43:09.153Z,5.20
2019-05-25T14:45:37.035Z,4.20
2019-05-25T14:48:04.508Z,5.70
2019-05-25T14:50:31.915Z,4.70
2019-05-25T14:52:59.427Z,5.20
2019-05-25T14:55:26.691Z,4.60
2019-05-25T14:57:54.318Z,4.72
2019-05-25T15:00:22.078Z,5.92
2019-05-25T15:02:49.919Z,4.05
2019-05-25T15:05:17.760Z,5.97
2019-05-25T15:07:46.042Z,2.95
2019-05-25T15:10:13.932Z,3.98
2019-05-25T15:12:42.822Z,4.72
2019-05-25T15:15:13.658Z,5.95
2019-05-25T15:17:42.941Z,3.08
2019-05-25T15:20:10.338Z,5.83
2019-05-25T15:22:37.976Z,3.77
2019-05-25T15:25:05.222Z,3.92
2019-05-25T15:27:32.440Z,2.85
2019-05-25T15:29:59.945Z,8.33
2019-05-25T15:32:27.211Z,3.15
2019-05-25T15:34:54.413Z,4.87
2019-05-25T15:37:21.931Z,4.37
2019-05-25T15:39:49.824Z,3.45
2019-05-25T15:42:17.924Z,5.47
2019-05-25T15:44:45.548Z,3.20
2019-05-25T15:47:13.119Z,4.22
2019-05-25T15:49:40.263Z,3.12
2019-05-25T15:52:07.523Z,5.55
2019-05-25T15:54:34.729Z,5.50
2019-05-25T15:57:01.939Z,5.10
2019-05-25T15:59:29.484Z,5.75
2019-05-25T16:01:56.763Z,5.05
2019-05-25T16:04:24.323Z,5.00
2019-05-25T16:06:51.887Z,2.83
2019-05-25T16:09:19.275Z,5.83
2019-05-25T16:11:46.674Z,5.00
2019-05-25T16:14:13.895Z,5.42
2019-05-25T16:16:41.416Z,4.47
2019-05-25T16:19:08.988Z,6.25
2019-05-25T16:21:36.421Z,5.95
2019-05-25T16:24:04.247Z,6.67
2019-05-25T16:26:45.293Z,7.08
2019-05-25T16:29:03.210Z,5.12
2019-05-25T16:31:31.094Z,5.22
2019-05-25T16:33:58.666Z,5.03
2019-05-25T16:36:25.898Z,6.03
2019-05-25T16:38:52.984Z,5.37
2019-05-25T16:41:20.531Z,6.47
2019-05-25T16:43:47.926Z,5.72
2019-05-25T16:46:15.266Z,4.20
2019-05-25T16:48:43.234Z,4.12
2019-05-25T16:51:10.832Z,4.37
2019-05-25T16:53:38.367Z,7.72
2019-05-25T16:56:05.943Z,6.10
2019-05-25T16:58:33.138Z,6.78
2019-05-25T17:01:01.153Z,7.87
2019-05-25T17:03:29.345Z,5.17
2019-05-25T17:05:56.798Z,6.42
2019-05-25T17:08:24.366Z,9.83
2019-05-25T17:10:51.589Z,4.62
2019-05-25T17:13:19.214Z,9.28
2019-05-25T17:15:46.541Z,9.28
2019-05-25T17:18:14.235Z,8.23
2019-05-25T17:20:41.767Z,5.35
2019-05-25T17:23:09.347Z,5.62
2019-05-25T17:25:36.547Z,9.35
2019-05-25T17:28:04.067Z,6.83
2019-05-25T17:30:37.453Z,5.72
2019-05-25T17:33:04.679Z,7.47
2019-05-25T17:35:32.322Z,7.87
2019-05-25T17:38:00.270Z,7.10
2019-05-25T17:40:27.807Z,6.42
2019-05-25T17:42:55.143Z,6.55
2019-05-25T17:45:22.327Z,6.00
2019-05-25T17:47:51.028Z,6.60
2019-05-25T17:50:18.671Z,4.95
2019-05-25T17:52:46.651Z,7.30
2019-05-25T17:55:14.127Z,6.22
2019-05-25T17:57:41.385Z,8.23
2019-05-25T18:00:09.817Z,4.55
2019-05-25T18:02:37.163Z,5.08
2019-05-25T18:05:04.433Z,5.28
2019-05-25T18:07:32.071Z,8.03
2019-05-25T18:09:59.299Z,5.75
2019-05-25T18:12:26.868Z,8.75
2019-05-25T18:14:54.730Z,7.12
2019-05-25T18:17:22.295Z,6.40
2019-05-25T18:19:49.770Z,6.40
2019-05-25T18:22:18.071Z,4.37
2019-05-25T18:24:45.624Z,5.20
2019-05-25T18:27:13.508Z,6.55
2019-05-25T18:29:41.079Z,10.18
2019-05-25T18:32:09.318Z,5.75
2019-05-25T18:34:36.986Z,6.55
2019-05-25T18:37:04.562Z,10.85
2019-05-25T18:39:32.119Z,7.83
2019-05-25T18:41:59.307Z,8.83
2019-05-25T18:44:26.930Z,6.62
2019-05-25T18:46:54.830Z,7.53
2019-05-25T18:49:21.931Z,8.40
2019-05-25T18:51:49.862Z,6.80
2019-05-25T18:54:17.387Z,8.83
2019-05-25T18:56:44.924Z,9.70
2019-05-25T18:59:12.948Z,5.90
2019-05-25T19:01:40.515Z,6.22
2019-05-25T19:04:07.757Z,9.38
2019-05-25T19:06:35.215Z,6.58
2019-05-25T19:09:02.605Z,5.22
2019-05-25T19:11:30.053Z,4.33
2019-05-25T19:13:57.591Z,6.47
2019-05-25T19:16:25.392Z,6.08
2019-05-25T19:18:52.635Z,7.15
2019-05-25T19:21:20.111Z,6.58
2019-05-25T19:23:47.332Z,5.87
2019-05-25T19:26:14.683Z,5.72
2019-05-25T19:28:42.187Z,4.70
2019-05-25T19:31:09.330Z,6.15
2019-05-25T19:33:36.777Z,10.60
2019-05-25T19:36:04.360Z,4.33
2019-05-25T19:38:31.914Z,5.67
2019-05-25T19:40:59.114Z,4.33
2019-05-25T19:43:26.624Z,6.00
2019-05-25T19:45:54.530Z,7.33
2019-05-25T19:48:22.380Z,4.85
2019-05-25T19:50:50.298Z,6.28
2019-05-25T19:53:18.346Z,5.10
2019-05-25T19:55:45.605Z,5.90
2019-05-25T19:58:12.755Z,4.45
2019-05-25T20:00:40.319Z,4.90
2019-05-25T20:03:07.895Z,4.60
2019-05-25T20:05:35.430Z,9.10
2019-05-25T20:08:03.218Z,6.35
2019-05-25T20:10:31.086Z,6.65
2019-05-25T20:12:58.282Z,5.37
2019-05-25T20:15:27.406Z,9.15
2019-05-25T20:17:55.027Z,6.45
2019-05-25T20:20:23.089Z,4.83
2019-05-25T20:22:50.610Z,5.80
2019-05-25T20:25:18.552Z,7.47
2019-05-25T20:27:46.061Z,6.40
2019-05-25T20:30:14.501Z,7.00
2019-05-25T20:32:42.137Z,5.60
2019-05-25T20:35:09.587Z,8.18
2019-05-25T20:37:37.445Z,7.75
2019-05-25T20:40:05.367Z,7.65
2019-05-25T20:42:32.784Z,7.33
2019-05-25T20:45:00.443Z,5.78
2019-05-25T20:47:28.440Z,8.53
2019-05-25T20:49:55.999Z,8.95
2019-05-25T20:52:25.409Z,5.30
2019-05-25T20:54:53.358Z,9.55
2019-05-25T20:57:21.974Z,5.20
2019-05-25T20:59:49.844Z,7.92
2019-05-25T21:02:16.909Z,9.78
2019-05-25T21:04:44.371Z,6.67
2019-05-25T21:07:12.666Z,7.58
2019-05-25T21:09:39.968Z,7.92
2019-05-25T21:12:07.259Z,9.70
2019-05-25T21:14:35.131Z,8.50
2019-05-25T21:17:02.491Z,9.28
2019-05-25T21:19:30.784Z,8.60
2019-05-25T21:21:58.668Z,5.40
2019-05-25T21:24:26.498Z,10.78
2019-05-25T21:26:54.102Z,10.53
2019-05-25T21:29:21.844Z,6.70
2019-05-25T21:31:49.409Z,9.15
2019-05-25T21:34:16.602Z,7.65
2019-05-25T21:36:44.227Z,8.13
2019-05-25T21:39:11.790Z,7.20
2019-05-25T21:41:39.363Z,8.93
2019-05-25T21:44:07.335Z,7.75
2019-05-25T21:46:34.883Z,8.68
2019-05-25T21:49:02.432Z,8.23
2019-05-25T21:51:30.445Z,13.05
2019-05-25T21:53:57.962Z,7.83
2019-05-25T21:56:25.554Z,11.18
2019-05-25T21:58:53.749Z,13.15
2019-05-25T22:01:21.413Z,13.88
2019-05-25T22:03:49.024Z,26.82
2019-05-25T22:06:24.390Z,21.20
2019-05-25T22:08:45.663Z,19.30
2019-05-25T22:11:12.901Z,13.05
2019-05-25T22:13:40.075Z,8.58
2019-05-25T22:16:07.598Z,10.23
2019-05-25T22:18:35.079Z,10.70
2019-05-25T22:21:03.179Z,10.32
2019-05-25T22:23:30.790Z,11.85
2019-05-25T22:25:57.990Z,10.88
2019-05-25T22:28:25.441Z,11.33
2019-05-25T22:30:52.643Z,13.32
2019-05-25T22:33:20.234Z,14.68
2019-05-25T22:35:48.648Z,10.68
2019-05-25T22:38:16.839Z,12.93
2019-05-25T22:40:44.336Z,11.22
2019-05-25T22:43:11.851Z,10.98
2019-05-25T22:45:39.737Z,10.30
2019-05-25T22:48:06.958Z,11.38
2019-05-25T22:50:34.540Z,15.85
2019-05-25T22:53:01.963Z,11.12
2019-05-25T22:55:29.526Z,12.70
2019-05-25T22:57:56.768Z,12.70
2019-05-25T23:00:24.611Z,11.40
2019-05-25T23:02:51.943Z,19.40
2019-05-25T23:05:19.163Z,14.63
2019-05-25T23:07:47.022Z,11.97
2019-05-25T23:10:14.239Z,12.80
2019-05-25T23:12:42.011Z,13.13
2019-05-25T23:15:09.970Z,13.18
2019-05-25T23:17:37.292Z,11.95
2019-05-25T23:20:05.111Z,10.75
2019-05-25T23:22:32.990Z,12.20
2019-05-25T23:25:00.488Z,10.88
2019-05-25T23:27:27.591Z,11.08
2019-05-25T23:29:55.440Z,11.40
2019-05-25T23:32:23.137Z,11.70
2019-05-25T23:34:50.906Z,11.40
2019-05-25T23:37:18.763Z,11.22
2019-05-25T23:39:46.343Z,11.43
2019-05-25T23:42:13.895Z,16.40
2019-05-25T23:44:40.963Z,14.80
2019-05-25T23:47:08.423Z,15.32
2019-05-25T23:49:36.278Z,14.58
2019-05-25T23:52:03.650Z,17.02
2019-05-25T23:54:31.088Z,20.02
2019-05-25T23:56:59.031Z,15.90
2019-05-25T23:59:26.919Z,12.53
